createdAt,value
2017-10-01T00:00:59.083Z,11.51
2017-10-01T00:01:59.023Z,11.50
2017-10-01T00:02:59.081Z,11.50
2017-10-01T00:03:59.023Z,11.50
2017-10-01T00:04:59.088Z,11.51
2017-10-01T00:05:59.086Z,11.51
2017-10-01T00:06:59.085Z,11.50
2017-10-01T00:07:59.080Z,11.50
2017-10-01T00:08:59.090Z,11.50
2017-10-01T00:09:59.026Z,11.49
2017-10-01T00:10:59.164Z,11.47
2017-10-01T00:11:59.097Z,11.47
2017-10-01T00:12:59.138Z,11.50
2017-10-01T00:13:59.099Z,11.51
2017-10-01T00:14:59.096Z,11.53
2017-10-01T00:15:59.122Z,11.53
2017-10-01T00:16:59.085Z,11.54
2017-10-01T00:17:59.149Z,11.56
2017-10-01T00:18:59.097Z,11.56
2017-10-01T00:19:59.142Z,11.54
2017-10-01T00:20:59.094Z,11.56
2017-10-01T00:21:59.161Z,11.54
2017-10-01T00:22:59.149Z,11.51
2017-10-01T00:23:59.145Z,11.54
2017-10-01T00:24:59.148Z,11.54
2017-10-01T00:25:59.147Z,11.53
2017-10-01T00:26:59.098Z,11.56
2017-10-01T00:27:59.107Z,11.54
2017-10-01T00:28:59.111Z,11.53
2017-10-01T00:29:59.103Z,11.53
2017-10-01T00:30:59.113Z,11.54
2017-10-01T00:31:59.113Z,11.54
2017-10-01T00:32:59.071Z,11.53
2017-10-01T00:33:59.068Z,11.53
2017-10-01T00:34:59.057Z,11.51
2017-10-01T00:35:59.044Z,11.53
2017-10-01T00:36:59.001Z,11.53
2017-10-01T00:37:59.032Z,11.53
2017-10-01T00:38:59.199Z,11.53
2017-10-01T00:39:59.009Z,11.54
2017-10-01T00:40:59.109Z,11.53
2017-10-01T00:41:59.162Z,11.53
2017-10-01T00:42:59.177Z,11.53
2017-10-01T00:43:59.115Z,11.53
2017-10-01T00:44:59.157Z,11.53
2017-10-01T00:45:59.159Z,11.53
2017-10-01T00:46:59.165Z,11.51
2017-10-01T00:47:59.115Z,11.50
2017-10-01T00:48:59.164Z,11.49
2017-10-01T00:49:59.169Z,11.49
2017-10-01T00:50:59.185Z,11.49
2017-10-01T00:51:59.136Z,11.46
2017-10-01T00:52:59.117Z,11.43
2017-10-01T00:53:59.121Z,11.42
2017-10-01T00:54:59.169Z,11.40
2017-10-01T00:55:59.168Z,11.38
2017-10-01T00:56:59.075Z,11.38
2017-10-01T00:57:59.119Z,11.36
2017-10-01T00:58:59.120Z,11.35
2017-10-01T00:59:59.125Z,11.32
2017-10-01T01:00:59.038Z,11.32
2017-10-01T01:01:59.035Z,11.32
2017-10-01T01:02:59.038Z,11.31
2017-10-01T01:03:59.079Z,11.31
2017-10-01T01:04:59.037Z,11.29
2017-10-01T01:05:59.081Z,11.28
2017-10-01T01:06:59.221Z,11.28
2017-10-01T01:07:59.137Z,11.28
2017-10-01T01:08:59.071Z,11.25
2017-10-01T01:09:59.095Z,11.27
2017-10-01T01:10:59.099Z,11.27
2017-10-01T01:11:59.144Z,11.25
2017-10-01T01:12:59.108Z,11.25
2017-10-01T01:13:59.181Z,11.27
2017-10-01T01:14:59.113Z,11.27
2017-10-01T01:15:59.128Z,11.27
2017-10-01T01:16:59.126Z,11.27
2017-10-01T01:17:59.168Z,11.25
2017-10-01T01:18:59.112Z,11.24
2017-10-01T01:19:59.084Z,11.24
2017-10-01T01:20:59.061Z,11.22
2017-10-01T01:21:59.138Z,11.20
2017-10-01T01:22:59.100Z,11.20
2017-10-01T01:23:59.072Z,11.20
2017-10-01T01:24:59.115Z,11.18
2017-10-01T01:25:59.142Z,11.18
2017-10-01T01:26:59.159Z,11.17
2017-10-01T01:27:59.158Z,11.17
2017-10-01T01:28:59.091Z,11.17
2017-10-01T01:29:59.078Z,11.17
2017-10-01T01:30:59.078Z,11.17
2017-10-01T01:31:59.144Z,11.17
2017-10-01T01:32:59.106Z,11.17
2017-10-01T01:33:59.164Z,11.16
2017-10-01T01:34:59.157Z,11.16
2017-10-01T01:35:59.079Z,11.17
2017-10-01T01:36:59.114Z,11.17
2017-10-01T01:37:59.140Z,11.16
2017-10-01T01:38:59.113Z,11.14
2017-10-01T01:39:59.112Z,11.14
2017-10-01T01:40:59.186Z,11.13
2017-10-01T01:41:59.163Z,11.13
2017-10-01T01:42:59.100Z,11.13
2017-10-01T01:43:59.114Z,11.13
2017-10-01T01:44:59.128Z,11.10
2017-10-01T01:45:59.147Z,11.11
2017-10-01T01:46:59.117Z,11.10
2017-10-01T01:47:59.161Z,11.09
2017-10-01T01:48:59.148Z,11.07
2017-10-01T01:49:59.160Z,11.06
2017-10-01T01:50:59.127Z,11.05
2017-10-01T01:51:59.128Z,11.06
2017-10-01T01:52:59.096Z,11.06
2017-10-01T01:53:59.102Z,11.05
2017-10-01T01:54:59.166Z,11.06
2017-10-01T01:55:59.105Z,11.06
2017-10-01T01:56:59.188Z,11.06
2017-10-01T01:57:59.108Z,11.07
2017-10-01T01:58:59.129Z,11.09
2017-10-01T01:59:59.154Z,11.07
2017-10-01T02:00:59.160Z,11.07
2017-10-01T02:01:59.159Z,11.06
2017-10-01T02:02:59.157Z,11.05
2017-10-01T02:03:59.163Z,11.05
2017-10-01T02:04:59.223Z,11.03
2017-10-01T02:05:59.168Z,11.00
2017-10-01T02:06:59.229Z,10.98
2017-10-01T02:07:59.163Z,10.95
2017-10-01T02:08:59.213Z,10.95
2017-10-01T02:09:59.219Z,10.93
2017-10-01T02:10:59.213Z,10.93
2017-10-01T02:11:59.168Z,10.93
2017-10-01T02:12:59.115Z,10.91
2017-10-01T02:13:59.167Z,10.93
2017-10-01T02:14:59.163Z,10.94
2017-10-01T02:15:59.166Z,10.94
2017-10-01T02:16:59.165Z,10.95
2017-10-01T02:17:59.167Z,10.95
2017-10-01T02:18:59.125Z,10.94
2017-10-01T02:19:59.216Z,10.93
2017-10-01T02:20:59.144Z,10.93
2017-10-01T02:21:59.214Z,10.90
2017-10-01T02:22:59.110Z,10.90
2017-10-01T02:23:59.207Z,10.87
2017-10-01T02:24:59.111Z,10.86
2017-10-01T02:25:59.151Z,10.86
2017-10-01T02:26:59.178Z,10.84
2017-10-01T02:27:59.142Z,10.81
2017-10-01T02:28:59.144Z,10.79
2017-10-01T02:29:59.154Z,10.79
2017-10-01T02:30:59.242Z,10.77
2017-10-01T02:31:59.178Z,10.74
2017-10-01T02:32:59.350Z,10.69
2017-10-01T02:33:59.237Z,10.68
2017-10-01T02:34:59.231Z,10.67
2017-10-01T02:35:59.226Z,10.64
2017-10-01T02:36:59.231Z,10.64
2017-10-01T02:37:59.188Z,10.57
2017-10-01T02:38:59.227Z,10.56
2017-10-01T02:39:59.247Z,10.52
2017-10-01T02:40:59.147Z,10.47
2017-10-01T02:41:59.194Z,10.45
2017-10-01T02:42:59.184Z,10.41
2017-10-01T02:43:59.192Z,10.36
2017-10-01T02:44:59.228Z,10.34
2017-10-01T02:45:59.159Z,10.30
2017-10-01T02:46:59.159Z,10.27
2017-10-01T02:47:59.182Z,10.23
2017-10-01T02:48:59.232Z,10.16
2017-10-01T02:49:59.154Z,10.09
2017-10-01T02:50:59.191Z,10.04
2017-10-01T02:51:59.196Z,10.00
2017-10-01T02:52:59.243Z,9.95
2017-10-01T02:53:59.243Z,9.91
2017-10-01T02:54:59.188Z,9.89
2017-10-01T02:55:59.194Z,9.86
2017-10-01T02:56:59.201Z,9.82
2017-10-01T02:57:59.201Z,9.78
2017-10-01T02:58:59.196Z,9.75
2017-10-01T02:59:59.203Z,9.72
2017-10-01T03:00:59.197Z,9.69
2017-10-01T03:01:59.208Z,9.62
2017-10-01T03:02:59.195Z,9.60
2017-10-01T03:03:59.177Z,9.60
2017-10-01T03:04:59.200Z,9.61
2017-10-01T03:05:59.196Z,9.57
2017-10-01T03:06:59.201Z,9.53
2017-10-01T03:07:59.247Z,9.49
2017-10-01T03:08:59.206Z,9.43
2017-10-01T03:09:59.203Z,9.42
2017-10-01T03:10:59.249Z,9.40
2017-10-01T03:11:59.412Z,9.39
2017-10-01T03:12:59.204Z,9.34
2017-10-01T03:13:59.291Z,9.30
2017-10-01T03:14:59.205Z,9.28
2017-10-01T03:15:59.255Z,9.23
2017-10-01T03:16:59.270Z,9.19
2017-10-01T03:17:59.204Z,9.15
2017-10-01T03:18:59.258Z,9.13
2017-10-01T03:19:59.208Z,9.11
2017-10-01T03:20:59.210Z,9.07
2017-10-01T03:21:59.270Z,9.01
2017-10-01T03:22:59.210Z,8.97
2017-10-01T03:23:59.255Z,8.98
2017-10-01T03:24:59.259Z,8.97
2017-10-01T03:25:59.216Z,8.97
2017-10-01T03:26:59.257Z,8.93
2017-10-01T03:27:59.211Z,8.89
2017-10-01T03:28:59.258Z,8.86
2017-10-01T03:29:59.215Z,8.83
2017-10-01T03:30:59.167Z,8.80
2017-10-01T03:31:59.162Z,8.78
2017-10-01T03:32:59.176Z,8.75
2017-10-01T03:33:59.169Z,8.75
2017-10-01T03:34:59.179Z,8.74
2017-10-01T03:35:59.172Z,8.71
2017-10-01T03:36:59.137Z,8.72
2017-10-01T03:37:59.181Z,8.71
2017-10-01T03:38:59.155Z,8.67
2017-10-01T03:39:59.168Z,8.64
2017-10-01T03:40:59.268Z,8.61
2017-10-01T03:41:59.270Z,8.58
2017-10-01T03:42:59.270Z,8.53
2017-10-01T03:43:59.272Z,8.50
2017-10-01T03:44:59.287Z,8.45
2017-10-01T03:45:59.230Z,8.37
2017-10-01T03:46:59.288Z,8.35
2017-10-01T03:47:59.221Z,8.34
2017-10-01T03:48:59.277Z,8.38
2017-10-01T03:49:59.291Z,8.42
2017-10-01T03:50:59.274Z,8.39
2017-10-01T03:51:59.280Z,8.42
2017-10-01T03:52:59.290Z,8.39
2017-10-01T03:53:59.302Z,8.43
2017-10-01T03:54:59.225Z,8.37
2017-10-01T03:55:59.281Z,8.35
2017-10-01T03:56:59.229Z,8.37
2017-10-01T03:57:59.281Z,8.39
2017-10-01T03:58:59.283Z,8.39
2017-10-01T03:59:59.281Z,8.38
2017-10-01T04:00:59.207Z,8.37
2017-10-01T04:01:59.200Z,8.37
2017-10-01T04:02:59.198Z,8.35
2017-10-01T04:03:59.280Z,8.34
2017-10-01T04:04:59.281Z,8.31
2017-10-01T04:05:59.199Z,8.28
2017-10-01T04:06:59.212Z,8.26
2017-10-01T04:07:59.249Z,8.22
2017-10-01T04:08:59.281Z,8.17
2017-10-01T04:09:59.282Z,8.16
2017-10-01T04:10:59.272Z,8.09
2017-10-01T04:11:59.272Z,8.06
2017-10-01T04:12:59.274Z,8.02
2017-10-01T04:13:59.232Z,8.05
2017-10-01T04:14:59.232Z,8.13
2017-10-01T04:15:59.274Z,8.24
2017-10-01T04:16:59.237Z,8.26
2017-10-01T04:17:59.213Z,8.31
2017-10-01T04:18:59.274Z,8.30
2017-10-01T04:19:59.285Z,8.26
2017-10-01T04:20:59.252Z,8.22
2017-10-01T04:21:59.298Z,8.16
2017-10-01T04:22:59.245Z,8.15
2017-10-01T04:23:59.296Z,8.19
2017-10-01T04:24:59.297Z,8.20
2017-10-01T04:25:59.298Z,8.17
2017-10-01T04:26:59.253Z,8.16
2017-10-01T04:27:59.298Z,8.09
2017-10-01T04:28:59.300Z,8.04
2017-10-01T04:29:59.314Z,7.98
2017-10-01T04:30:59.250Z,7.93
2017-10-01T04:31:59.299Z,7.90
2017-10-01T04:32:59.248Z,7.90
2017-10-01T04:33:59.300Z,7.92
2017-10-01T04:34:59.320Z,7.98
2017-10-01T04:35:59.257Z,8.02
2017-10-01T04:36:59.299Z,8.04
2017-10-01T04:37:59.257Z,7.99
2017-10-01T04:38:59.323Z,7.97
2017-10-01T04:39:59.260Z,7.93
2017-10-01T04:40:59.340Z,7.89
2017-10-01T04:41:59.261Z,7.82
2017-10-01T04:42:59.254Z,7.82
2017-10-01T04:43:59.259Z,7.81
2017-10-01T04:44:59.331Z,7.81
2017-10-01T04:45:59.306Z,7.85
2017-10-01T04:46:59.253Z,7.85
2017-10-01T04:47:59.305Z,7.83
2017-10-01T04:48:59.306Z,7.83
2017-10-01T04:49:59.312Z,7.86
2017-10-01T04:50:59.233Z,7.86
2017-10-01T04:51:59.197Z,7.85
2017-10-01T04:52:59.229Z,7.83
2017-10-01T04:53:59.227Z,7.83
2017-10-01T04:54:59.198Z,7.86
2017-10-01T04:55:59.202Z,7.90
2017-10-01T04:56:59.284Z,7.92
2017-10-01T04:57:59.281Z,7.97
2017-10-01T04:58:59.292Z,7.97
2017-10-01T04:59:59.233Z,8.11
2017-10-01T05:00:59.303Z,8.20
2017-10-01T05:01:59.244Z,8.22
2017-10-01T05:02:59.240Z,8.22
2017-10-01T05:03:59.305Z,8.22
2017-10-01T05:04:59.312Z,8.23
2017-10-01T05:05:59.243Z,8.24
2017-10-01T05:06:59.267Z,8.23
2017-10-01T05:07:59.288Z,8.22
2017-10-01T05:08:59.245Z,8.22
2017-10-01T05:09:59.316Z,8.22
2017-10-01T05:10:59.347Z,8.24
2017-10-01T05:11:59.277Z,8.27
2017-10-01T05:12:59.280Z,8.31
2017-10-01T05:13:59.273Z,8.35
2017-10-01T05:14:59.327Z,8.42
2017-10-01T05:15:59.327Z,8.47
2017-10-01T05:16:59.325Z,8.51
2017-10-01T05:17:59.347Z,8.53
2017-10-01T05:18:59.342Z,8.61
2017-10-01T05:19:59.327Z,8.65
2017-10-01T05:20:59.280Z,8.71
2017-10-01T05:21:59.324Z,8.72
2017-10-01T05:22:59.287Z,8.72
2017-10-01T05:23:59.231Z,8.75
2017-10-01T05:24:59.281Z,8.75
2017-10-01T05:25:59.355Z,8.76
2017-10-01T05:26:59.301Z,8.79
2017-10-01T05:27:59.357Z,8.85
2017-10-01T05:28:59.287Z,8.86
2017-10-01T05:29:59.334Z,8.90
2017-10-01T05:30:59.329Z,8.93
2017-10-01T05:31:59.352Z,8.96
2017-10-01T05:32:59.288Z,8.97
2017-10-01T05:33:59.333Z,9.01
2017-10-01T05:34:59.336Z,9.02
2017-10-01T05:35:59.337Z,9.02
2017-10-01T05:36:59.342Z,9.04
2017-10-01T05:37:59.290Z,9.07
2017-10-01T05:38:59.290Z,9.08
2017-10-01T05:39:59.356Z,9.09
2017-10-01T05:40:59.357Z,9.12
2017-10-01T05:41:59.323Z,9.13
2017-10-01T05:42:59.244Z,9.15
2017-10-01T05:43:59.265Z,9.16
2017-10-01T05:44:59.258Z,9.18
2017-10-01T05:45:59.290Z,9.19
2017-10-01T05:46:59.308Z,9.22
2017-10-01T05:47:59.345Z,9.22
2017-10-01T05:48:59.260Z,9.23
2017-10-01T05:49:59.288Z,9.27
2017-10-01T05:50:59.328Z,9.28
2017-10-01T05:51:59.290Z,9.30
2017-10-01T05:52:59.309Z,9.31
2017-10-01T05:53:59.332Z,9.31
2017-10-01T05:54:59.445Z,9.32
2017-10-01T05:55:59.295Z,9.34
2017-10-01T05:56:59.245Z,9.38
2017-10-01T05:57:59.262Z,9.42
2017-10-01T05:58:59.238Z,9.43
2017-10-01T05:59:59.247Z,9.46
2017-10-01T06:00:59.349Z,9.49
2017-10-01T06:01:59.338Z,9.50
2017-10-01T06:02:59.252Z,9.51
2017-10-01T06:03:59.311Z,9.53
2017-10-01T06:04:59.278Z,9.53
2017-10-01T06:05:59.274Z,9.54
2017-10-01T06:06:59.285Z,9.54
2017-10-01T06:07:59.319Z,9.54
2017-10-01T06:08:59.260Z,9.55
2017-10-01T06:09:59.336Z,9.55
2017-10-01T06:10:59.253Z,9.57
2017-10-01T06:11:59.309Z,9.60
2017-10-01T06:12:59.348Z,9.60
2017-10-01T06:13:59.360Z,9.61
2017-10-01T06:14:59.291Z,9.65
2017-10-01T06:15:59.268Z,9.66
2017-10-01T06:16:59.353Z,9.68
2017-10-01T06:17:59.306Z,9.69
2017-10-01T06:18:59.330Z,9.69
2017-10-01T06:19:59.363Z,9.69
2017-10-01T06:20:59.359Z,9.69
2017-10-01T06:21:59.343Z,9.69
2017-10-01T06:22:59.358Z,9.69
2017-10-01T06:23:59.384Z,9.73
2017-10-01T06:24:59.268Z,9.73
2017-10-01T06:25:59.315Z,9.76
2017-10-01T06:26:59.345Z,9.78
2017-10-01T06:27:59.318Z,9.79
2017-10-01T06:28:59.350Z,9.80
2017-10-01T06:29:59.322Z,9.82
2017-10-01T06:30:59.366Z,9.79
2017-10-01T06:31:59.366Z,9.80
2017-10-01T06:32:59.335Z,9.79
2017-10-01T06:33:59.278Z,9.79
2017-10-01T06:34:59.319Z,9.82
2017-10-01T06:35:59.375Z,9.82
2017-10-01T06:36:59.297Z,9.86
2017-10-01T06:37:59.281Z,9.89
2017-10-01T06:38:59.320Z,9.90
2017-10-01T06:39:59.325Z,9.91
2017-10-01T06:40:59.335Z,9.95
2017-10-01T06:41:59.330Z,10.00
2017-10-01T06:42:59.378Z,10.04
2017-10-01T06:43:59.309Z,10.05
2017-10-01T06:44:59.281Z,10.06
2017-10-01T06:45:59.345Z,10.11
2017-10-01T06:46:59.371Z,10.14
2017-10-01T06:47:59.381Z,10.16
2017-10-01T06:48:59.313Z,10.16
2017-10-01T06:49:59.330Z,10.14
2017-10-01T06:50:59.378Z,10.16
2017-10-01T06:51:59.340Z,10.17
2017-10-01T06:52:59.307Z,10.21
2017-10-01T06:53:59.299Z,10.25
2017-10-01T06:54:59.269Z,10.31
2017-10-01T06:55:59.276Z,10.36
2017-10-01T06:56:59.300Z,10.36
2017-10-01T06:57:59.276Z,10.35
2017-10-01T06:58:59.338Z,10.35
2017-10-01T06:59:59.299Z,10.36
2017-10-01T07:00:59.275Z,10.36
2017-10-01T07:01:59.342Z,10.39
2017-10-01T07:02:59.381Z,10.41
2017-10-01T07:03:59.341Z,10.43
2017-10-01T07:04:59.339Z,10.46
2017-10-01T07:05:59.313Z,10.47
2017-10-01T07:06:59.414Z,10.50
2017-10-01T07:07:59.362Z,10.56
2017-10-01T07:08:59.343Z,10.61
2017-10-01T07:09:59.296Z,10.58
2017-10-01T07:10:59.380Z,10.65
2017-10-01T07:11:59.340Z,10.75
2017-10-01T07:12:59.304Z,10.87
2017-10-01T07:13:59.308Z,10.95
2017-10-01T07:14:59.313Z,10.95
2017-10-01T07:15:59.282Z,10.95
2017-10-01T07:16:59.351Z,11.00
2017-10-01T07:17:59.311Z,11.07
2017-10-01T07:18:59.345Z,11.22
2017-10-01T07:19:59.346Z,11.31
2017-10-01T07:20:59.286Z,11.39
2017-10-01T07:21:59.383Z,11.51
2017-10-01T07:22:59.321Z,11.56
2017-10-01T07:23:59.319Z,11.45
2017-10-01T07:24:59.315Z,11.45
2017-10-01T07:25:59.325Z,11.39
2017-10-01T07:26:59.369Z,11.45
2017-10-01T07:27:59.292Z,11.46
2017-10-01T07:28:59.301Z,11.53
2017-10-01T07:29:59.293Z,11.58
2017-10-01T07:30:59.295Z,11.56
2017-10-01T07:31:59.371Z,11.53
2017-10-01T07:32:59.361Z,11.61
2017-10-01T07:33:59.402Z,11.64
2017-10-01T07:34:59.359Z,11.60
2017-10-01T07:35:59.375Z,11.54
2017-10-01T07:36:59.411Z,11.49
2017-10-01T07:37:59.363Z,11.47
2017-10-01T07:38:59.430Z,11.36
2017-10-01T07:39:59.404Z,11.33
2017-10-01T07:40:59.363Z,11.38
2017-10-01T07:41:59.376Z,11.35
2017-10-01T07:42:59.329Z,11.25
2017-10-01T07:43:59.342Z,11.27
2017-10-01T07:44:59.362Z,11.31
2017-10-01T07:45:59.307Z,11.36
2017-10-01T07:46:59.403Z,11.40
2017-10-01T07:47:59.334Z,11.45
2017-10-01T07:48:59.309Z,11.50
2017-10-01T07:49:59.375Z,11.57
2017-10-01T07:50:59.358Z,11.51
2017-10-01T07:51:59.388Z,11.53
2017-10-01T07:52:59.376Z,11.58
2017-10-01T07:53:59.399Z,11.56
2017-10-01T07:54:59.404Z,11.58
2017-10-01T07:55:59.380Z,11.64
2017-10-01T07:56:59.335Z,11.65
2017-10-01T07:57:59.366Z,11.75
2017-10-01T07:58:59.343Z,11.76
2017-10-01T07:59:59.346Z,11.80
2017-10-01T08:00:59.337Z,11.95
2017-10-01T08:01:59.247Z,12.03
2017-10-01T08:02:59.242Z,12.05
2017-10-01T08:03:59.255Z,12.05
2017-10-01T08:04:59.242Z,12.08
2017-10-01T08:05:59.256Z,12.05
2017-10-01T08:06:59.308Z,12.06
2017-10-01T08:07:59.319Z,12.16
2017-10-01T08:08:59.289Z,12.25
2017-10-01T08:09:59.325Z,12.29
2017-10-01T08:10:59.292Z,12.37
2017-10-01T08:11:59.427Z,12.46
2017-10-01T08:12:59.385Z,12.55
2017-10-01T08:13:59.389Z,12.60
2017-10-01T08:14:59.425Z,12.51
2017-10-01T08:15:59.431Z,12.55
2017-10-01T08:16:59.429Z,12.58
2017-10-01T08:17:59.435Z,12.62
2017-10-01T08:18:59.451Z,12.62
2017-10-01T08:19:59.432Z,12.73
2017-10-01T08:20:59.381Z,12.76
2017-10-01T08:21:59.333Z,12.76
2017-10-01T08:22:59.381Z,12.72
2017-10-01T08:23:59.327Z,12.69
2017-10-01T08:24:59.418Z,12.79
2017-10-01T08:25:59.351Z,12.82
2017-10-01T08:26:59.401Z,12.95
2017-10-01T08:27:59.428Z,13.06
2017-10-01T08:28:59.394Z,13.02
2017-10-01T08:29:59.398Z,12.94
2017-10-01T08:30:59.384Z,12.99
2017-10-01T08:31:59.394Z,13.09
2017-10-01T08:32:59.442Z,13.10
2017-10-01T08:33:59.439Z,13.14
2017-10-01T08:34:59.443Z,13.12
2017-10-01T08:35:59.348Z,13.13
2017-10-01T08:36:59.442Z,13.13
2017-10-01T08:37:59.397Z,13.10
2017-10-01T08:38:59.442Z,13.10
2017-10-01T08:39:59.393Z,13.06
2017-10-01T08:40:59.351Z,13.00
2017-10-01T08:41:59.469Z,12.95
2017-10-01T08:42:59.431Z,12.89
2017-10-01T08:43:59.400Z,12.89
2017-10-01T08:44:59.351Z,12.86
2017-10-01T08:45:59.446Z,12.89
2017-10-01T08:46:59.475Z,12.87
2017-10-01T08:47:59.449Z,12.84
2017-10-01T08:48:59.356Z,12.79
2017-10-01T08:49:59.445Z,12.69
2017-10-01T08:50:59.449Z,12.68
2017-10-01T08:51:59.448Z,12.72
2017-10-01T08:52:59.358Z,12.77
2017-10-01T08:53:59.421Z,12.84
2017-10-01T08:54:59.408Z,12.92
2017-10-01T08:55:59.456Z,12.89
2017-10-01T08:56:59.422Z,12.95
2017-10-01T08:57:59.405Z,12.95
2017-10-01T08:58:59.421Z,12.92
2017-10-01T08:59:59.409Z,12.91
2017-10-01T09:00:59.404Z,12.96
2017-10-01T09:01:59.395Z,12.94
2017-10-01T09:02:59.473Z,12.86
2017-10-01T09:03:59.459Z,12.82
2017-10-01T09:04:59.414Z,12.80
2017-10-01T09:05:59.413Z,12.91
2017-10-01T09:06:59.462Z,12.96
2017-10-01T09:07:59.479Z,13.02
2017-10-01T09:08:59.458Z,13.24
2017-10-01T09:09:59.418Z,13.49
2017-10-01T09:10:59.394Z,13.65
2017-10-01T09:11:59.483Z,13.95
2017-10-01T09:12:59.444Z,14.27
2017-10-01T09:13:59.488Z,14.53
2017-10-01T09:14:59.459Z,14.76
2017-10-01T09:15:59.466Z,14.96
2017-10-01T09:16:59.424Z,15.07
2017-10-01T09:17:59.483Z,15.14
2017-10-01T09:18:59.463Z,15.17
2017-10-01T09:19:59.422Z,15.19
2017-10-01T09:20:59.422Z,15.13
2017-10-01T09:21:59.401Z,14.98
2017-10-01T09:22:59.425Z,15.00
2017-10-01T09:23:59.403Z,15.02
2017-10-01T09:24:59.474Z,15.10
2017-10-01T09:25:59.478Z,15.21
2017-10-01T09:26:59.452Z,15.37
2017-10-01T09:27:59.423Z,15.15
2017-10-01T09:28:59.393Z,15.22
2017-10-01T09:29:59.474Z,15.19
2017-10-01T09:30:59.432Z,15.29
2017-10-01T09:31:59.428Z,15.43
2017-10-01T09:32:59.424Z,15.66
2017-10-01T09:33:59.443Z,15.88
2017-10-01T09:34:59.497Z,15.90
2017-10-01T09:35:59.476Z,15.88
2017-10-01T09:36:59.429Z,16.10
2017-10-01T09:37:59.430Z,16.28
2017-10-01T09:38:59.477Z,16.28
2017-10-01T09:39:59.432Z,16.32
2017-10-01T09:40:59.476Z,16.28
2017-10-01T09:41:59.431Z,16.22
2017-10-01T09:42:59.434Z,16.20
2017-10-01T09:43:59.383Z,16.17
2017-10-01T09:44:59.416Z,15.84
2017-10-01T09:45:59.388Z,15.66
2017-10-01T09:46:59.387Z,15.68
2017-10-01T09:47:59.435Z,15.70
2017-10-01T09:48:59.483Z,15.64
2017-10-01T09:49:59.487Z,15.53
2017-10-01T09:50:59.483Z,15.22
2017-10-01T09:51:59.380Z,14.98
2017-10-01T09:52:59.483Z,14.84
2017-10-01T09:53:59.421Z,14.69
2017-10-01T09:54:59.439Z,14.69
2017-10-01T09:55:59.438Z,15.00
2017-10-01T09:56:59.445Z,15.35
2017-10-01T09:57:59.495Z,15.64
2017-10-01T09:58:59.449Z,15.70
2017-10-01T09:59:59.444Z,16.00
2017-10-01T10:00:59.490Z,16.20
2017-10-01T10:01:59.472Z,16.16
2017-10-01T10:02:59.470Z,16.16
2017-10-01T10:03:59.413Z,16.38
2017-10-01T10:04:59.430Z,16.73
2017-10-01T10:05:59.496Z,16.85
2017-10-01T10:06:59.492Z,17.13
2017-10-01T10:07:59.452Z,17.31
2017-10-01T10:08:59.489Z,17.53
2017-10-01T10:09:59.458Z,17.77
2017-10-01T10:10:59.492Z,17.91
2017-10-01T10:11:59.504Z,17.89
2017-10-01T10:12:59.458Z,18.02
2017-10-01T10:13:59.608Z,17.88
2017-10-01T10:14:59.452Z,17.92
2017-10-01T10:15:59.530Z,17.98
2017-10-01T10:16:59.493Z,17.68
2017-10-01T10:17:59.402Z,17.68
2017-10-01T10:18:59.440Z,17.80
2017-10-01T10:19:59.438Z,18.00
2017-10-01T10:20:59.464Z,18.13
2017-10-01T10:21:59.466Z,18.16
2017-10-01T10:22:59.472Z,18.31
2017-10-01T10:23:59.470Z,18.12
2017-10-01T10:24:59.469Z,18.20
2017-10-01T10:25:59.498Z,18.10
2017-10-01T10:26:59.451Z,18.00
2017-10-01T10:27:59.486Z,17.87
2017-10-01T10:28:59.446Z,17.84
2017-10-01T10:29:59.463Z,18.00
2017-10-01T10:30:59.477Z,18.09
2017-10-01T10:31:59.414Z,18.09
2017-10-01T10:32:59.463Z,17.79
2017-10-01T10:33:59.464Z,17.42
2017-10-01T10:34:59.514Z,17.08
2017-10-01T10:35:59.476Z,16.95
2017-10-01T10:36:59.493Z,16.84
2017-10-01T10:37:59.465Z,16.44
2017-10-01T10:38:59.421Z,16.52
2017-10-01T10:39:59.472Z,16.63
2017-10-01T10:40:59.452Z,16.77
2017-10-01T10:41:59.480Z,16.73
2017-10-01T10:42:59.416Z,16.72
2017-10-01T10:43:59.451Z,16.54
2017-10-01T10:44:59.448Z,16.43
2017-10-01T10:45:59.503Z,16.35
2017-10-01T10:46:59.431Z,16.24
2017-10-01T10:47:59.414Z,16.31
2017-10-01T10:48:59.449Z,16.59
2017-10-01T10:49:59.513Z,16.95
2017-10-01T10:50:59.515Z,17.29
2017-10-01T10:51:59.410Z,17.66
2017-10-01T10:52:59.412Z,17.85
2017-10-01T10:53:59.436Z,17.91
2017-10-01T10:54:59.440Z,17.71
2017-10-01T10:55:59.476Z,17.55
2017-10-01T10:56:59.471Z,17.51
2017-10-01T10:57:59.473Z,17.58
2017-10-01T10:58:59.476Z,17.62
2017-10-01T10:59:59.475Z,17.46
2017-10-01T11:00:59.441Z,17.47
2017-10-01T11:01:59.477Z,17.49
2017-10-01T11:02:59.440Z,17.16
2017-10-01T11:03:59.477Z,17.18
2017-10-01T11:04:59.414Z,17.32
2017-10-01T11:05:59.417Z,17.44
2017-10-01T11:06:59.445Z,17.61
2017-10-01T11:07:59.419Z,17.55
2017-10-01T11:08:59.482Z,17.60
2017-10-01T11:09:59.481Z,17.87
2017-10-01T11:10:59.480Z,17.98
2017-10-01T11:11:59.527Z,18.35
2017-10-01T11:12:59.467Z,18.52
2017-10-01T11:13:59.467Z,18.77
2017-10-01T11:14:59.454Z,18.97
2017-10-01T11:15:59.428Z,18.81
2017-10-01T11:16:59.439Z,18.55
2017-10-01T11:17:59.457Z,18.61
2017-10-01T11:18:59.491Z,18.54
2017-10-01T11:19:59.536Z,18.44
2017-10-01T11:20:59.490Z,18.32
2017-10-01T11:21:59.552Z,18.31
2017-10-01T11:22:59.437Z,18.51
2017-10-01T11:23:59.488Z,18.44
2017-10-01T11:24:59.491Z,18.73
2017-10-01T11:25:59.495Z,18.68
2017-10-01T11:26:59.537Z,18.92
2017-10-01T11:27:59.476Z,19.02
2017-10-01T11:28:59.501Z,18.98
2017-10-01T11:29:59.480Z,18.95
2017-10-01T11:30:59.466Z,19.09
2017-10-01T11:31:59.497Z,19.13
2017-10-01T11:32:59.512Z,19.29
2017-10-01T11:33:59.548Z,19.46
2017-10-01T11:34:59.512Z,19.60
2017-10-01T11:35:59.510Z,19.32
2017-10-01T11:36:59.481Z,19.44
2017-10-01T11:37:59.475Z,19.66
2017-10-01T11:38:59.512Z,19.60
2017-10-01T11:39:59.501Z,19.47
2017-10-01T11:40:59.537Z,19.25
2017-10-01T11:41:59.529Z,19.13
2017-10-01T11:42:59.557Z,19.25
2017-10-01T11:43:59.546Z,19.15
2017-10-01T11:44:59.451Z,19.08
2017-10-01T11:45:59.506Z,18.92
2017-10-01T11:46:59.569Z,18.86
2017-10-01T11:47:59.509Z,18.99
2017-10-01T11:48:59.491Z,18.81
2017-10-01T11:49:59.504Z,18.98
2017-10-01T11:50:59.518Z,18.90
2017-10-01T11:51:59.550Z,19.02
2017-10-01T11:52:59.522Z,19.15
2017-10-01T11:53:59.509Z,19.40
2017-10-01T11:54:59.523Z,19.46
2017-10-01T11:55:59.514Z,19.57
2017-10-01T11:56:59.521Z,19.16
2017-10-01T11:57:59.524Z,18.76
2017-10-01T11:58:59.491Z,18.94
2017-10-01T11:59:59.557Z,18.97
2017-10-01T12:00:59.479Z,19.17
2017-10-01T12:01:59.549Z,19.39
2017-10-01T12:02:59.551Z,19.58
2017-10-01T12:03:59.523Z,19.79
2017-10-01T12:04:59.531Z,19.79
2017-10-01T12:05:59.557Z,19.92
2017-10-01T12:06:59.473Z,20.23
2017-10-01T12:07:59.470Z,19.61
2017-10-01T12:08:59.494Z,19.24
2017-10-01T12:09:59.464Z,19.21
2017-10-01T12:10:59.555Z,19.03
2017-10-01T12:11:59.462Z,18.61
2017-10-01T12:12:59.493Z,18.66
2017-10-01T12:13:59.464Z,18.90
2017-10-01T12:14:59.538Z,19.08
2017-10-01T12:15:59.557Z,19.16
2017-10-01T12:16:59.530Z,19.33
2017-10-01T12:17:59.506Z,19.60
2017-10-01T12:18:59.523Z,19.77
2017-10-01T12:19:59.543Z,19.70
2017-10-01T12:20:59.506Z,19.49
2017-10-01T12:21:59.456Z,19.54
2017-10-01T12:22:59.460Z,19.85
2017-10-01T12:23:59.462Z,19.85
2017-10-01T12:24:59.435Z,19.49
2017-10-01T12:25:59.470Z,19.31
2017-10-01T12:26:59.371Z,19.01
2017-10-01T12:27:59.459Z,19.09
2017-10-01T12:28:59.419Z,19.43
2017-10-01T12:29:59.452Z,19.62
2017-10-01T12:30:59.468Z,19.73
2017-10-01T12:31:59.575Z,19.70
2017-10-01T12:32:59.556Z,19.64
2017-10-01T12:33:59.579Z,19.66
2017-10-01T12:34:59.545Z,19.51
2017-10-01T12:35:59.498Z,19.64
2017-10-01T12:36:59.548Z,19.99
2017-10-01T12:37:59.544Z,20.06
2017-10-01T12:38:59.537Z,19.80
2017-10-01T12:39:59.518Z,19.31
2017-10-01T12:40:59.614Z,19.31
2017-10-01T12:41:59.501Z,19.49
2017-10-01T12:42:59.536Z,19.66
2017-10-01T12:43:59.480Z,19.53
2017-10-01T12:44:59.505Z,19.27
2017-10-01T12:45:59.477Z,19.42
2017-10-01T12:46:59.541Z,19.74
2017-10-01T12:47:59.479Z,20.06
2017-10-01T12:48:59.507Z,20.09
2017-10-01T12:49:59.480Z,19.88
2017-10-01T12:50:59.504Z,19.84
2017-10-01T12:51:59.541Z,20.10
2017-10-01T12:52:59.559Z,20.27
2017-10-01T12:53:59.485Z,20.34
2017-10-01T12:54:59.587Z,20.66
2017-10-01T12:55:59.526Z,20.87
2017-10-01T12:56:59.588Z,21.01
2017-10-01T12:57:59.587Z,21.05
2017-10-01T12:58:59.589Z,20.99
2017-10-01T12:59:59.493Z,21.28
2017-10-01T13:00:59.585Z,21.40